Time;durP1;ratioP1;P1;durP2;ratioP2;P2;SDS_P1;SDS_P2;PMS_P1;PMS_P2;Temp;Humidity;BMP_temperature;BMP_pressure;BME280_temperature;BME280_humidity;BME280_pressure;Samples;Min_cycle;Max_cycle;Signal;HPM_P1;HPM_P2
2022/10/07 00:00:27;;;;;;;9.57;4.77;;;;;;;;;;5051694;28;20485;-78
2022/10/07 00:02:54;;;;;;;4.80;4.13;;;;;;;;;;5051047;28;20456;-77
2022/10/07 00:05:23;;;;;;;7.47;5.00;;;;;;;;;;5051679;28;20450;-78
2022/10/07 00:07:50;;;;;;;7.27;4.10;;;;;;;;;;5050957;28;20839;-78
2022/10/07 00:10:17;;;;;;;5.37;4.20;;;;;;;;;;5051559;28;20805;-78
2022/10/07 00:12:44;;;;;;;11.13;5.00;;;;;;;;;;5051031;28;20449;-77
2022/10/07 00:15:11;;;;;;;5.37;4.37;;;;;;;;;;5051515;28;20457;-77
2022/10/07 00:17:38;;;;;;;5.87;5.13;;;;;;;;;;5051111;28;20485;-78
2022/10/07 00:20:06;;;;;;;7.40;4.70;;;;;;;;;;5050895;28;20481;-77
2022/10/07 00:22:34;;;;;;;6.63;4.10;;;;;;;;;;5050425;28;20949;-77
2022/10/07 00:25:01;;;;;;;5.30;4.67;;;;;;;;;;5051379;28;20454;-78
2022/10/07 00:27:28;;;;;;;7.03;4.50;;;;;;;;;;5050996;28;20823;-77
2022/10/07 00:29:55;;;;;;;9.90;5.10;;;;;;;;;;5051191;28;20468;-77
2022/10/07 00:32:22;;;;;;;6.83;4.30;;;;;;;;;;5051393;28;20450;-78
2022/10/07 00:34:49;;;;;;;7.63;4.77;;;;;;;;;;5051252;28;20449;-78
2022/10/07 00:37:16;;;;;;;7.63;4.80;;;;;;;;;;5052028;28;20446;-77
2022/10/07 00:39:45;;;;;;;5.30;4.20;;;;;;;;;;5056120;28;20492;-77
2022/10/07 00:42:13;;;;;;;6.40;4.10;;;;;;;;;;5060090;28;20446;-77
2022/10/07 00:44:43;;;;;;;5.53;4.60;;;;;;;;;;5059301;28;20449;-77
2022/10/07 00:47:17;;;;;;;5.10;4.20;;;;;;;;;;5055605;28;20437;-76
2022/10/07 00:49:46;;;;;;;5.43;4.13;;;;;;;;;;5052141;28;20449;-76
2022/10/07 00:52:13;;;;;;;5.47;4.60;;;;;;;;;;5050465;28;20957;-78
2022/10/07 00:54:41;;;;;;;7.07;4.30;;;;;;;;;;5051618;28;20453;-76
2022/10/07 00:57:09;;;;;;;4.40;4.00;;;;;;;;;;5060073;28;20452;-77
2022/10/07 00:59:38;;;;;;;7.10;4.57;;;;;;;;;;5060736;28;20557;-78
2022/10/07 01:02:06;;;;;;;6.93;4.30;;;;;;;;;;5065481;28;20445;-78
2022/10/07 01:04:33;;;;;;;7.60;4.27;;;;;;;;;;5061143;28;20825;-76
2022/10/07 01:07:00;;;;;;;8.67;4.20;;;;;;;;;;5061876;28;20457;-77
2022/10/07 01:09:27;;;;;;;4.70;3.90;;;;;;;;;;5057240;28;20449;-77
2022/10/07 01:11:57;;;;;;;7.10;4.87;;;;;;;;;;5051271;28;20441;-77
2022/10/07 01:14:29;;;;;;;6.77;4.50;;;;;;;;;;5050780;28;20444;-78
2022/10/07 01:17:00;;;;;;;6.27;4.90;;;;;;;;;;5051695;28;20418;-78
2022/10/07 01:19:43;;;;;;;7.20;4.47;;;;;;;;;;5049536;28;20465;-78
2022/10/07 01:22:15;;;;;;;10.70;4.87;;;;;;;;;;5051094;28;20452;-78
2022/10/07 01:24:43;;;;;;;6.83;5.00;;;;;;;;;;5050050;28;20521;-77
2022/10/07 01:27:14;;;;;;;8.67;4.50;;;;;;;;;;5050920;28;20453;-77
2022/10/07 01:29:44;;;;;;;5.87;4.07;;;;;;;;;;5050591;28;20457;-78
2022/10/07 01:32:13;;;;;;;5.47;4.67;;;;;;;;;;5050172;28;20798;-78
2022/10/07 01:34:41;;;;;;;8.70;4.63;;;;;;;;;;5049674;28;20949;-78
2022/10/07 01:37:11;;;;;;;4.77;4.10;;;;;;;;;;5050443;28;20471;-78
2022/10/07 01:39:40;;;;;;;4.90;4.40;;;;;;;;;;5050013;28;20927;-77
2022/10/07 01:42:07;;;;;;;4.47;4.03;;;;;;;;;;5050080;28;20458;-78
2022/10/07 01:44:38;;;;;;;9.10;4.43;;;;;;;;;;5049592;28;20442;-76
2022/10/07 01:47:06;;;;;;;5.93;4.57;;;;;;;;;;5050156;28;20442;-77
2022/10/07 01:49:33;;;;;;;4.93;4.33;;;;;;;;;;5050155;28;20501;-77
2022/10/07 01:52:07;;;;;;;5.30;4.43;;;;;;;;;;5049781;28;20441;-78
2022/10/07 01:54:41;;;;;;;7.47;4.50;;;;;;;;;;5049751;28;20433;-78
2022/10/07 01:57:14;;;;;;;5.43;4.50;;;;;;;;;;5049999;28;20432;-76
2022/10/07 01:59:50;;;;;;;7.67;4.43;;;;;;;;;;5049752;28;20472;-78
2022/10/07 02:02:25;;;;;;;8.80;4.50;;;;;;;;;;5049832;28;20579;-77
2022/10/07 02:04:58;;;;;;;7.37;5.07;;;;;;;;;;5049855;28;20532;-77
2022/10/07 02:07:30;;;;;;;8.30;4.70;;;;;;;;;;5050448;28;20483;-77
2022/10/07 02:10:00;;;;;;;11.30;5.77;;;;;;;;;;5050299;28;20461;-77
2022/10/07 02:12:32;;;;;;;8.80;4.97;;;;;;;;;;5050182;28;20434;-78
2022/10/07 02:15:03;;;;;;;5.70;4.70;;;;;;;;;;5050462;28;20457;-77
2022/10/07 02:17:32;;;;;;;6.70;4.80;;;;;;;;;;5050208;28;20454;-77
2022/10/07 02:20:00;;;;;;;7.07;4.90;;;;;;;;;;5057077;28;20449;-76
2022/10/07 02:22:29;;;;;;;6.63;4.50;;;;;;;;;;5068325;28;20446;-77
2022/10/07 02:24:57;;;;;;;6.43;4.63;;;;;;;;;;5053529;28;20444;-76
2022/10/07 02:27:26;;;;;;;5.80;4.80;;;;;;;;;;5076425;28;20440;-76
2022/10/07 02:29:56;;;;;;;9.90;6.30;;;;;;;;;;5076894;28;20457;-76
2022/10/07 02:32:25;;;;;;;6.97;4.77;;;;;;;;;;5080669;28;20425;-77
2022/10/07 02:34:55;;;;;;;5.90;4.70;;;;;;;;;;5079881;28;20429;-76
2022/10/07 02:37:25;;;;;;;6.87;5.37;;;;;;;;;;5080269;28;21074;-77
2022/10/07 02:39:52;;;;;;;15.17;5.03;;;;;;;;;;5080147;28;20457;-77
2022/10/07 02:42:24;;;;;;;6.50;5.23;;;;;;;;;;5077817;28;20457;-76
2022/10/07 02:44:52;;;;;;;10.27;4.90;;;;;;;;;;5054548;28;20434;-77
2022/10/07 02:47:22;;;;;;;7.17;5.57;;;;;;;;;;5045138;28;20456;-76
2022/10/07 02:49:52;;;;;;;17.20;4.97;;;;;;;;;;5053930;28;20469;-77
2022/10/07 02:52:21;;;;;;;6.80;4.87;;;;;;;;;;5052871;28;20840;-77
2022/10/07 02:54:50;;;;;;;5.97;4.87;;;;;;;;;;5052851;28;20441;-77
2022/10/07 02:57:19;;;;;;;7.70;5.07;;;;;;;;;;5053290;28;20448;-76
2022/10/07 02:59:47;;;;;;;8.13;5.10;;;;;;;;;;5052616;28;20469;-76
2022/10/07 03:02:17;;;;;;;7.00;4.73;;;;;;;;;;5052350;28;21018;-77
2022/10/07 03:04:44;;;;;;;7.70;5.53;;;;;;;;;;5044950;28;20430;-77
2022/10/07 03:07:13;;;;;;;8.43;5.97;;;;;;;;;;5043711;28;20442;-77
2022/10/07 03:09:40;;;;;;;7.97;5.50;;;;;;;;;;5040757;28;20497;-77
2022/10/07 03:12:07;;;;;;;8.53;5.50;;;;;;;;;;5040600;28;20439;-76
2022/10/07 03:14:35;;;;;;;9.37;5.97;;;;;;;;;;5043667;28;20437;-77
2022/10/07 03:17:02;;;;;;;6.73;5.10;;;;;;;;;;5052765;28;20477;-77
2022/10/07 03:19:29;;;;;;;6.10;5.57;;;;;;;;;;5052466;28;20461;-78
2022/10/07 03:21:56;;;;;;;8.77;5.90;;;;;;;;;;5052629;28;20520;-77
2022/10/07 03:24:24;;;;;;;6.50;5.37;;;;;;;;;;5051683;28;20954;-78
2022/10/07 03:26:51;;;;;;;9.07;6.13;;;;;;;;;;5052405;28;20450;-77
2022/10/07 03:29:18;;;;;;;6.30;5.20;;;;;;;;;;5052235;28;20456;-77
2022/10/07 03:31:45;;;;;;;6.47;5.10;;;;;;;;;;5051978;28;20952;-77
2022/10/07 03:34:12;;;;;;;8.60;5.60;;;;;;;;;;5051716;28;20445;-77
2022/10/07 03:36:40;;;;;;;11.70;5.77;;;;;;;;;;5052186;28;20452;-77
2022/10/07 03:39:07;;;;;;;8.40;5.17;;;;;;;;;;5051746;28;20961;-78
2022/10/07 03:41:35;;;;;;;7.73;5.43;;;;;;;;;;5051678;28;20481;-78
2022/10/07 03:44:03;;;;;;;10.90;6.43;;;;;;;;;;5051137;28;20453;-77
2022/10/07 03:46:30;;;;;;;8.27;5.27;;;;;;;;;;5051870;28;20445;-77
2022/10/07 03:48:57;;;;;;;8.80;5.97;;;;;;;;;;5051794;28;20445;-77
2022/10/07 03:51:24;;;;;;;7.97;4.90;;;;;;;;;;5051577;28;20472;-76
2022/10/07 03:53:53;;;;;;;6.97;5.27;;;;;;;;;;5051024;28;20453;-77
2022/10/07 03:56:20;;;;;;;7.63;4.73;;;;;;;;;;5051947;28;20498;-77
2022/10/07 03:58:48;;;;;;;5.83;5.33;;;;;;;;;;5051708;28;20449;-78
2022/10/07 04:01:16;;;;;;;8.83;4.93;;;;;;;;;;5051460;28;20488;-78
2022/10/07 04:03:43;;;;;;;7.97;5.63;;;;;;;;;;5050963;28;20441;-77
2022/10/07 04:06:10;;;;;;;9.13;5.87;;;;;;;;;;5051416;28;20449;-77
2022/10/07 04:08:39;;;;;;;8.80;5.30;;;;;;;;;;5051389;28;20449;-77
2022/10/07 04:11:06;;;;;;;10.43;5.37;;;;;;;;;;5051167;28;20524;-77
2022/10/07 04:13:33;;;;;;;5.83;5.03;;;;;;;;;;5050633;28;20449;-77
2022/10/07 04:16:07;;;;;;;6.43;5.00;;;;;;;;;;5051540;28;20477;-77
2022/10/07 04:18:34;;;;;;;6.83;5.87;;;;;;;;;;5051245;28;20446;-77
2022/10/07 04:21:01;;;;;;;6.17;5.03;;;;;;;;;;5051372;28;20490;-77
2022/10/07 04:23:29;;;;;;;6.27;5.17;;;;;;;;;;5050084;28;20453;-77
2022/10/07 04:25:56;;;;;;;6.67;5.17;;;;;;;;;;5044793;28;20453;-77
2022/10/07 04:28:24;;;;;;;7.27;5.23;;;;;;;;;;5042738;28;20460;-78
2022/10/07 04:30:52;;;;;;;11.03;5.87;;;;;;;;;;5050836;28;20474;-77
2022/10/07 04:33:22;;;;;;;6.60;5.03;;;;;;;;;;5042242;28;20446;-77
2022/10/07 04:35:50;;;;;;;11.47;6.40;;;;;;;;;;5050963;28;20418;-77
2022/10/07 04:38:18;;;;;;;6.73;6.03;;;;;;;;;;5050641;28;20457;-78
2022/10/07 04:40:46;;;;;;;11.30;5.73;;;;;;;;;;5050769;28;20473;-77
2022/10/07 04:43:22;;;;;;;8.87;4.80;;;;;;;;;;5050138;28;20544;-77
2022/10/07 04:45:50;;;;;;;10.57;5.73;;;;;;;;;;5050540;28;20575;-78
2022/10/07 04:48:17;;;;;;;8.80;5.70;;;;;;;;;;5050905;28;20817;-78
2022/10/07 04:50:46;;;;;;;5.50;5.00;;;;;;;;;;5050523;28;20466;-77
2022/10/07 04:53:14;;;;;;;7.20;5.57;;;;;;;;;;5049613;28;20453;-78
2022/10/07 04:55:42;;;;;;;7.33;5.20;;;;;;;;;;5050631;28;20448;-78
2022/10/07 04:58:09;;;;;;;8.73;5.90;;;;;;;;;;5050603;28;20487;-77
2022/10/07 05:00:36;;;;;;;5.30;4.87;;;;;;;;;;5050467;28;20461;-78
2022/10/07 05:03:03;;;;;;;10.47;6.13;;;;;;;;;;5049483;28;20487;-77
2022/10/07 05:05:30;;;;;;;8.80;5.67;;;;;;;;;;5050364;28;20441;-77
2022/10/07 05:07:59;;;;;;;8.57;6.00;;;;;;;;;;5050890;28;20457;-77
2022/10/07 05:10:26;;;;;;;9.37;6.50;;;;;;;;;;5050561;28;20461;-77
2022/10/07 05:12:54;;;;;;;7.20;5.77;;;;;;;;;;5049504;28;20442;-77
2022/10/07 05:15:21;;;;;;;10.90;5.90;;;;;;;;;;5032420;28;20443;-76
2022/10/07 05:17:48;;;;;;;9.90;6.17;;;;;;;;;;5030776;28;20457;-77
2022/10/07 05:20:16;;;;;;;7.67;5.60;;;;;;;;;;5030010;28;20990;-76
2022/10/07 05:22:43;;;;;;;7.67;5.40;;;;;;;;;;5029752;28;20488;-76
2022/10/07 05:25:11;;;;;;;7.27;6.57;;;;;;;;;;5030266;28;20450;-76
2022/10/07 05:27:39;;;;;;;10.53;6.10;;;;;;;;;;5030345;28;20448;-76
2022/10/07 05:30:07;;;;;;;14.70;6.80;;;;;;;;;;5037171;28;21489;-76
2022/10/07 05:32:34;;;;;;;9.30;5.80;;;;;;;;;;5049698;28;20804;-76
2022/10/07 05:35:02;;;;;;;7.33;5.50;;;;;;;;;;5041730;28;20980;-78
2022/10/07 05:37:29;;;;;;;7.77;5.90;;;;;;;;;;5050380;28;20446;-76
2022/10/07 05:39:56;;;;;;;7.07;6.13;;;;;;;;;;5050826;28;20817;-77
2022/10/07 05:42:25;;;;;;;7.47;6.20;;;;;;;;;;5050714;28;20492;-77
2022/10/07 05:44:52;;;;;;;9.97;5.97;;;;;;;;;;5049550;28;20445;-76
2022/10/07 05:47:19;;;;;;;7.33;5.30;;;;;;;;;;5050209;28;20500;-76
2022/10/07 05:49:46;;;;;;;8.07;5.80;;;;;;;;;;5050197;28;20501;-77
2022/10/07 05:52:13;;;;;;;6.97;5.80;;;;;;;;;;5049854;28;20445;-77
2022/10/07 05:54:40;;;;;;;7.67;5.70;;;;;;;;;;5048811;28;20453;-77
2022/10/07 05:57:07;;;;;;;9.00;6.10;;;;;;;;;;5049641;28;20449;-77
2022/10/07 05:59:36;;;;;;;6.63;5.57;;;;;;;;;;5049492;28;20982;-76
2022/10/07 06:02:03;;;;;;;7.87;5.47;;;;;;;;;;5049309;28;20822;-77
2022/10/07 06:04:30;;;;;;;8.80;6.27;;;;;;;;;;5048836;28;20968;-77
2022/10/07 06:06:57;;;;;;;9.03;5.97;;;;;;;;;;5053254;28;20449;-77
2022/10/07 06:14:56;;;;;;;8.67;6.40;;;;;;;;;;5052762;28;20471;-77
2022/10/07 06:17:23;;;;;;;6.40;5.80;;;;;;;;;;5053766;28;20643;-76
2022/10/07 06:19:50;;;;;;;11.00;6.40;;;;;;;;;;5053129;28;20544;-77
2022/10/07 06:22:17;;;;;;;9.17;6.70;;;;;;;;;;5053174;28;20482;-77
2022/10/07 06:24:44;;;;;;;12.10;7.30;;;;;;;;;;5052746;28;20445;-76
2022/10/07 06:27:11;;;;;;;11.03;6.30;;;;;;;;;;5053918;28;20441;-78
2022/10/07 06:29:38;;;;;;;10.67;6.63;;;;;;;;;;5053372;28;21082;-76
2022/10/07 06:32:06;;;;;;;9.73;6.07;;;;;;;;;;5053466;28;20444;-77
2022/10/07 06:34:33;;;;;;;8.57;7.03;;;;;;;;;;5052597;28;20445;-77
2022/10/07 06:37:00;;;;;;;11.97;6.87;;;;;;;;;;5053652;28;20456;-77
2022/10/07 06:39:27;;;;;;;10.30;6.80;;;;;;;;;;5053204;28;20462;-76
2022/10/07 06:41:56;;;;;;;14.43;7.13;;;;;;;;;;5053093;28;20485;-77
2022/10/07 06:44:23;;;;;;;7.80;7.00;;;;;;;;;;5052293;28;20928;-77
2022/10/07 06:46:50;;;;;;;11.90;7.80;;;;;;;;;;5052906;28;20445;-76
2022/10/07 06:49:18;;;;;;;12.73;7.60;;;;;;;;;;5055075;28;20453;-75
2022/10/07 06:51:45;;;;;;;10.10;7.30;;;;;;;;;;5061747;28;20441;-77
2022/10/07 06:54:12;;;;;;;10.17;7.20;;;;;;;;;;5063011;28;20445;-76
2022/10/07 06:56:39;;;;;;;11.47;7.70;;;;;;;;;;5061622;28;20453;-77
2022/10/07 06:59:06;;;;;;;12.77;8.20;;;;;;;;;;5060813;28;20445;-77
2022/10/07 07:01:34;;;;;;;11.00;7.37;;;;;;;;;;5050202;28;20438;-77
2022/10/07 07:04:01;;;;;;;9.30;7.43;;;;;;;;;;5052765;28;20449;-77
2022/10/07 07:06:29;;;;;;;11.13;8.13;;;;;;;;;;5053589;28;20441;-78
2022/10/07 07:08:59;;;;;;;11.50;7.63;;;;;;;;;;5047235;28;20447;-76
2022/10/07 07:11:40;;;;;;;11.00;7.63;;;;;;;;;;5046153;28;20468;-75
2022/10/07 07:14:08;;;;;;;12.87;8.00;;;;;;;;;;5053582;28;20426;-76
2022/10/07 07:16:35;;;;;;;17.90;8.30;;;;;;;;;;5061914;28;20442;-76
2022/10/07 07:19:03;;;;;;;13.73;8.50;;;;;;;;;;5055936;28;20441;-76
2022/10/07 07:21:33;;;;;;;11.33;8.57;;;;;;;;;;5053687;28;20746;-77
2022/10/07 07:24:00;;;;;;;13.80;8.47;;;;;;;;;;5052079;28;20454;-77
2022/10/07 07:26:28;;;;;;;11.67;8.20;;;;;;;;;;5052467;28;20457;-77
2022/10/07 07:28:57;;;;;;;14.13;8.73;;;;;;;;;;5052736;28;20476;-76
2022/10/07 07:31:24;;;;;;;11.03;7.90;;;;;;;;;;5052281;28;20465;-76
2022/10/07 07:33:52;;;;;;;14.33;8.77;;;;;;;;;;5052053;28;20441;-77
2022/10/07 07:36:19;;;;;;;13.20;8.70;;;;;;;;;;5052292;28;20527;-76
2022/10/07 07:38:52;;;;;;;12.30;9.37;;;;;;;;;;5051595;28;20929;-76
2022/10/07 07:41:19;;;;;;;15.53;9.20;;;;;;;;;;5051510;28;21179;-76
2022/10/07 07:43:49;;;;;;;13.90;8.17;;;;;;;;;;5051259;28;20473;-76
2022/10/07 07:46:16;;;;;;;10.27;7.90;;;;;;;;;;5052211;28;20445;-76
2022/10/07 07:48:43;;;;;;;15.60;6.57;;;;;;;;;;5052098;28;20460;-76
2022/10/07 07:51:10;;;;;;;8.97;7.30;;;;;;;;;;5051893;28;20473;-77
2022/10/07 07:53:38;;;;;;;12.77;6.97;;;;;;;;;;5051308;28;20441;-76
2022/10/07 07:56:06;;;;;;;15.60;7.97;;;;;;;;;;5051549;28;20849;-76
2022/10/07 07:58:34;;;;;;;8.93;6.63;;;;;;;;;;5051578;28;20476;-76
2022/10/07 08:01:02;;;;;;;11.87;7.50;;;;;;;;;;5051765;28;20461;-77
2022/10/07 08:03:29;;;;;;;8.03;6.47;;;;;;;;;;5050857;28;20485;-76
2022/10/07 08:05:56;;;;;;;8.13;6.13;;;;;;;;;;5049695;28;20450;-78
2022/10/07 08:08:23;;;;;;;8.87;6.33;;;;;;;;;;5051049;28;20941;-77
2022/10/07 08:10:50;;;;;;;12.87;6.63;;;;;;;;;;5051141;28;20484;-78
2022/10/07 08:13:19;;;;;;;8.20;6.63;;;;;;;;;;5050312;28;20446;-77
2022/10/07 08:15:46;;;;;;;9.13;6.13;;;;;;;;;;5051242;28;20967;-75
2022/10/07 08:18:13;;;;;;;6.63;5.40;;;;;;;;;;5043237;28;20443;-76
2022/10/07 08:20:40;;;;;;;5.30;4.80;;;;;;;;;;5049481;28;20472;-76
2022/10/07 08:23:07;;;;;;;8.13;5.30;;;;;;;;;;5050334;28;20534;-75
2022/10/07 08:25:34;;;;;;;5.60;4.67;;;;;;;;;;5039438;28;20458;-76
2022/10/07 08:28:02;;;;;;;5.37;4.23;;;;;;;;;;5031124;28;20506;-76
2022/10/07 08:30:30;;;;;;;9.53;4.97;;;;;;;;;;5031795;28;20471;-76
2022/10/07 08:32:57;;;;;;;5.10;4.10;;;;;;;;;;5030966;28;20441;-77
2022/10/07 08:35:24;;;;;;;5.80;5.13;;;;;;;;;;5031421;28;20454;-76
2022/10/07 08:37:51;;;;;;;6.20;4.43;;;;;;;;;;5031019;28;20452;-77
2022/10/07 08:40:18;;;;;;;6.20;3.90;;;;;;;;;;5030729;28;20473;-76
2022/10/07 08:42:47;;;;;;;6.30;4.60;;;;;;;;;;5030177;28;20486;-76
2022/10/07 08:45:16;;;;;;;5.73;4.33;;;;;;;;;;5030975;28;20473;-76
2022/10/07 08:47:46;;;;;;;6.33;3.83;;;;;;;;;;5030756;28;20454;-77
2022/10/07 08:50:14;;;;;;;4.27;3.87;;;;;;;;;;5031258;28;20469;-77
2022/10/07 08:52:45;;;;;;;7.27;4.70;;;;;;;;;;5048852;28;20438;-77
2022/10/07 08:55:17;;;;;;;4.63;4.23;;;;;;;;;;5050356;28;20437;-76
2022/10/07 08:57:51;;;;;;;4.73;4.00;;;;;;;;;;5030352;28;20442;-76
2022/10/07 09:00:20;;;;;;;5.80;4.20;;;;;;;;;;5030493;28;20454;-77
2022/10/07 09:02:57;;;;;;;5.87;3.77;;;;;;;;;;5030068;28;20478;-77
2022/10/07 09:05:26;;;;;;;7.33;4.50;;;;;;;;;;5039995;28;20504;-77
2022/10/07 09:07:54;;;;;;;4.40;4.00;;;;;;;;;;5057955;28;20524;-77
2022/10/07 09:10:29;;;;;;;3.53;3.23;;;;;;;;;;5052713;28;20968;-77
2022/10/07 09:12:58;;;;;;;5.47;3.40;;;;;;;;;;5057851;28;20442;-76
2022/10/07 09:15:42;;;;;;;4.90;3.60;;;;;;;;;;5057495;28;20910;-77
2022/10/07 09:18:14;;;;;;;4.57;3.73;;;;;;;;;;5058847;28;20437;-76
2022/10/07 09:20:43;;;;;;;3.70;3.50;;;;;;;;;;5051908;28;20956;-76
2022/10/07 09:23:14;;;;;;;4.70;3.60;;;;;;;;;;5050923;28;20573;-77
2022/10/07 09:25:41;;;;;;;3.70;3.40;;;;;;;;;;5032608;28;20437;-77
2022/10/07 09:28:12;;;;;;;5.43;3.40;;;;;;;;;;5030824;28;20443;-77
2022/10/07 09:30:39;;;;;;;4.40;3.43;;;;;;;;;;5030917;28;20477;-76
2022/10/07 09:33:09;;;;;;;3.77;3.50;;;;;;;;;;5030281;28;20533;-76
2022/10/07 09:35:38;;;;;;;4.03;3.60;;;;;;;;;;5030785;28;20449;-76
2022/10/07 09:38:07;;;;;;;5.53;4.03;;;;;;;;;;5030780;28;20438;-77
2022/10/07 09:40:35;;;;;;;3.40;3.20;;;;;;;;;;5030344;28;20477;-77
2022/10/07 09:43:03;;;;;;;4.90;3.60;;;;;;;;;;5029907;28;20474;-77
2022/10/07 09:45:31;;;;;;;3.93;3.10;;;;;;;;;;5030404;28;20450;-76
2022/10/07 09:48:02;;;;;;;6.10;3.60;;;;;;;;;;5030241;28;20441;-76
2022/10/07 09:50:37;;;;;;;4.10;3.73;;;;;;;;;;5030169;28;20470;-76
2022/10/07 09:53:06;;;;;;;5.33;4.50;;;;;;;;;;5029401;28;20987;-76
2022/10/07 09:55:39;;;;;;;3.57;3.27;;;;;;;;;;5042566;28;20448;-76
2022/10/07 09:58:07;;;;;;;5.87;3.47;;;;;;;;;;5048032;28;20445;-76
2022/10/07 10:00:41;;;;;;;6.80;4.17;;;;;;;;;;5042014;28;20468;-76
2022/10/07 10:03:09;;;;;;;3.90;3.70;;;;;;;;;;5049843;28;20976;-76
2022/10/07 10:05:36;;;;;;;5.57;4.00;;;;;;;;;;5050469;28;20445;-76
2022/10/07 10:08:06;;;;;;;4.20;3.83;;;;;;;;;;5049315;28;20481;-76
2022/10/07 10:10:34;;;;;;;5.43;3.87;;;;;;;;;;5047411;28;20453;-76
2022/10/07 10:13:02;;;;;;;5.03;4.43;;;;;;;;;;5046858;28;20433;-76
2022/10/07 10:15:38;;;;;;;4.93;4.30;;;;;;;;;;5047098;28;20472;-76
2022/10/07 10:18:25;;;;;;;4.80;4.23;;;;;;;;;;5046946;28;20468;-77
2022/10/07 10:20:52;;;;;;;5.10;4.00;;;;;;;;;;5049528;28;20469;-76
2022/10/07 10:23:28;;;;;;;5.23;4.73;;;;;;;;;;5048086;28;20480;-76
2022/10/07 10:28:46;;;;;;;5.77;3.90;;;;;;;;;;5034512;28;20444;-76
2022/10/07 10:31:19;;;;;;;4.50;4.10;;;;;;;;;;5028586;28;20462;-75
2022/10/07 10:33:50;;;;;;;5.57;5.00;;;;;;;;;;5028294;28;20451;-76
2022/10/07 10:36:20;;;;;;;4.60;4.30;;;;;;;;;;5029052;28;20457;-75
2022/10/07 10:38:51;;;;;;;6.23;4.30;;;;;;;;;;5028523;28;20473;-77
2022/10/07 10:41:23;;;;;;;5.43;4.60;;;;;;;;;;5028673;28;20474;-74
2022/10/07 10:44:05;;;;;;;5.00;4.30;;;;;;;;;;5027835;28;20578;-75
2022/10/07 10:46:39;;;;;;;5.70;4.60;;;;;;;;;;5027240;28;20461;-75
2022/10/07 10:49:10;;;;;;;5.57;3.77;;;;;;;;;;5028746;28;20485;-76
2022/10/07 10:51:48;;;;;;;4.90;4.50;;;;;;;;;;5029611;28;20907;-76
2022/10/07 10:54:23;;;;;;;4.57;4.20;;;;;;;;;;5031861;28;20415;-77
2022/10/07 10:56:52;;;;;;;6.97;4.63;;;;;;;;;;5032262;28;20480;-76
2022/10/07 10:59:25;;;;;;;4.30;4.00;;;;;;;;;;5032675;28;20533;-76
2022/10/07 11:01:55;;;;;;;4.33;3.90;;;;;;;;;;5032902;28;21156;-75
2022/10/07 11:04:27;;;;;;;5.40;4.57;;;;;;;;;;5032268;28;20496;-76
2022/10/07 11:06:56;;;;;;;5.63;4.60;;;;;;;;;;5032633;28;20450;-76
2022/10/07 11:09:29;;;;;;;4.73;4.33;;;;;;;;;;5032344;28;20450;-75
2022/10/07 11:11:57;;;;;;;4.30;3.70;;;;;;;;;;5040476;28;20434;-76
2022/10/07 11:14:26;;;;;;;4.13;3.73;;;;;;;;;;5052211;28;20441;-75
2022/10/07 11:16:55;;;;;;;4.60;3.73;;;;;;;;;;5052515;28;20441;-75
2022/10/07 11:19:24;;;;;;;4.43;4.03;;;;;;;;;;5051638;28;20855;-77
2022/10/07 11:21:52;;;;;;;4.73;4.33;;;;;;;;;;5051703;28;20952;-76
2022/10/07 11:24:21;;;;;;;6.17;4.53;;;;;;;;;;5052114;28;20481;-77
2022/10/07 11:26:52;;;;;;;5.83;5.03;;;;;;;;;;5053671;28;20449;-76
2022/10/07 11:29:26;;;;;;;5.73;5.20;;;;;;;;;;5054537;28;20437;-76
2022/10/07 11:31:56;;;;;;;7.57;4.20;;;;;;;;;;5054975;28;20449;-77
2022/10/07 11:34:25;;;;;;;6.67;5.40;;;;;;;;;;5054461;28;20442;-78
2022/10/07 11:36:55;;;;;;;7.30;4.73;;;;;;;;;;5053186;28;20445;-76
2022/10/07 11:39:23;;;;;;;6.07;4.10;;;;;;;;;;5043895;28;20441;-76
2022/10/07 11:41:55;;;;;;;4.47;4.07;;;;;;;;;;5031968;28;20929;-77
2022/10/07 11:44:25;;;;;;;6.37;5.20;;;;;;;;;;5050685;28;20469;-77
2022/10/07 11:46:54;;;;;;;11.17;5.07;;;;;;;;;;5051618;28;20442;-77
2022/10/07 11:49:23;;;;;;;7.10;4.43;;;;;;;;;;5041636;28;20442;-76
2022/10/07 11:51:55;;;;;;;5.10;4.53;;;;;;;;;;5034263;28;20902;-76
2022/10/07 11:54:23;;;;;;;5.20;4.70;;;;;;;;;;5048905;28;20433;-77
2022/10/07 11:56:51;;;;;;;5.43;4.70;;;;;;;;;;5030854;28;20845;-77
2022/10/07 11:59:32;;;;;;;6.03;5.53;;;;;;;;;;5033383;28;20829;-76
2022/10/07 12:01:59;;;;;;;5.60;5.17;;;;;;;;;;5045384;28;20491;-76
2022/10/07 12:04:48;;;;;;;5.20;4.73;;;;;;;;;;5048554;28;20484;-76
2022/10/07 12:07:33;;;;;;;5.07;4.53;;;;;;;;;;5050529;28;20434;-76
2022/10/07 12:10:30;;;;;;;5.30;4.80;;;;;;;;;;5050277;28;20950;-76
2022/10/07 12:12:59;;;;;;;8.73;5.10;;;;;;;;;;5006990;28;20949;-75
2022/10/07 12:15:29;;;;;;;5.83;5.33;;;;;;;;;;5040963;28;20445;-76
2022/10/07 12:17:56;;;;;;;6.20;5.47;;;;;;;;;;5051069;28;20471;-76
2022/10/07 12:20:36;;;;;;;5.07;4.57;;;;;;;;;;5051394;28;20467;-75
2022/10/07 12:23:24;;;;;;;5.20;4.80;;;;;;;;;;5048891;28;20441;-77
2022/10/07 12:25:52;;;;;;;5.03;4.50;;;;;;;;;;5042314;28;20480;-77
2022/10/07 12:28:22;;;;;;;6.30;5.00;;;;;;;;;;5042062;28;20445;-76
2022/10/07 12:30:51;;;;;;;5.60;5.20;;;;;;;;;;5050363;28;20479;-77
2022/10/07 12:33:25;;;;;;;5.00;4.60;;;;;;;;;;5049865;28;20434;-76
2022/10/07 12:35:53;;;;;;;5.50;5.10;;;;;;;;;;5050338;28;20434;-77
2022/10/07 12:38:22;;;;;;;4.97;4.57;;;;;;;;;;5050193;28;20448;-76
2022/10/07 12:40:54;;;;;;;5.83;5.33;;;;;;;;;;5050189;28;20457;-76
2022/10/07 12:43:27;;;;;;;5.03;4.63;;;;;;;;;;5049389;28;20449;-76
2022/10/07 12:45:56;;;;;;;5.50;5.10;;;;;;;;;;5044736;28;20434;-77
2022/10/07 12:48:24;;;;;;;5.90;4.97;;;;;;;;;;5038482;28;20454;-76
2022/10/07 12:50:53;;;;;;;5.33;4.80;;;;;;;;;;5030425;28;20458;-77
2022/10/07 12:53:25;;;;;;;5.70;5.20;;;;;;;;;;5040514;28;21064;-76
2022/10/07 12:55:53;;;;;;;5.00;4.50;;;;;;;;;;5036705;28;20466;-76
2022/10/07 13:01:26;;;;;;;8.07;4.70;;;;;;;;;;5030306;28;20457;-77
2022/10/07 13:04:06;;;;;;;6.83;5.10;;;;;;;;;;5030020;28;20510;-76
2022/10/07 13:07:05;;;;;;;4.63;4.20;;;;;;;;;;5029797;28;20438;-76
2022/10/07 13:09:39;;;;;;;5.70;5.10;;;;;;;;;;5029643;28;20470;-77
2022/10/07 13:12:21;;;;;;;5.57;5.07;;;;;;;;;;5039202;28;20438;-76
2022/10/07 13:14:54;;;;;;;5.83;4.77;;;;;;;;;;5046660;28;20464;-77
2022/10/07 13:17:29;;;;;;;6.00;5.10;;;;;;;;;;5049430;28;20445;-76
2022/10/07 13:19:59;;;;;;;5.03;4.70;;;;;;;;;;5049721;28;20469;-76
2022/10/07 13:22:27;;;;;;;5.00;4.60;;;;;;;;;;5049473;28;20450;-76
2022/10/07 13:24:55;;;;;;;5.47;5.07;;;;;;;;;;5048853;28;20481;-76
2022/10/07 13:27:25;;;;;;;8.53;5.30;;;;;;;;;;5049108;28;20473;-76
2022/10/07 13:29:52;;;;;;;5.60;4.77;;;;;;;;;;5049044;28;20505;-76
2022/10/07 13:32:23;;;;;;;6.20;5.10;;;;;;;;;;5049152;28;20476;-76
2022/10/07 13:34:52;;;;;;;5.67;5.17;;;;;;;;;;5048875;28;20895;-76
2022/10/07 13:37:26;;;;;;;4.93;4.53;;;;;;;;;;5049589;28;20446;-77
2022/10/07 13:39:53;;;;;;;7.10;5.30;;;;;;;;;;5049228;28;20465;-76
2022/10/07 13:42:21;;;;;;;6.73;5.37;;;;;;;;;;5049073;28;20442;-76
2022/10/07 13:44:53;;;;;;;5.30;4.80;;;;;;;;;;5048564;28;21099;-77
2022/10/07 13:47:21;;;;;;;5.80;5.30;;;;;;;;;;5049263;28;20524;-77
2022/10/07 13:49:50;;;;;;;5.77;4.97;;;;;;;;;;5049554;28;20468;-76
2022/10/07 13:52:21;;;;;;;5.83;5.33;;;;;;;;;;5049435;28;20448;-76
2022/10/07 13:54:50;;;;;;;5.70;4.70;;;;;;;;;;5048625;28;20442;-78
2022/10/07 13:57:19;;;;;;;5.37;4.97;;;;;;;;;;5049482;28;20437;-76
2022/10/07 13:59:46;;;;;;;5.60;5.17;;;;;;;;;;5049264;28;20465;-76
2022/10/07 14:02:15;;;;;;;7.17;4.90;;;;;;;;;;5049002;28;20445;-76
2022/10/07 14:04:55;;;;;;;5.07;4.77;;;;;;;;;;5048315;28;20475;-76
2022/10/07 14:07:24;;;;;;;8.63;6.57;;;;;;;;;;5050533;28;20465;-76
2022/10/07 14:09:56;;;;;;;8.17;7.20;;;;;;;;;;5061826;28;20705;-77
2022/10/07 14:12:28;;;;;;;5.97;5.43;;;;;;;;;;5062453;28;20828;-77
2022/10/07 14:14:59;;;;;;;6.93;5.13;;;;;;;;;;5060468;28;20458;-77
2022/10/07 14:17:33;;;;;;;7.27;6.03;;;;;;;;;;5061461;28;20442;-76
2022/10/07 14:20:02;;;;;;;5.97;4.90;;;;;;;;;;5061548;28;20465;-75
2022/10/07 14:22:32;;;;;;;6.10;4.83;;;;;;;;;;5061281;28;20456;-76
2022/10/07 14:25:00;;;;;;;5.57;5.13;;;;;;;;;;5053512;28;21034;-76
2022/10/07 14:27:42;;;;;;;5.37;4.70;;;;;;;;;;5051640;28;20452;-75
2022/10/07 14:30:25;;;;;;;5.20;4.70;;;;;;;;;;5029722;28;20472;-75
2022/10/07 14:35:41;;;;;;;5.40;5.00;;;;;;;;;;5021364;28;20440;-77
2022/10/07 14:38:26;;;;;;;5.37;4.57;;;;;;;;;;5053325;28;20445;-76
2022/10/07 14:40:53;;;;;;;6.70;6.10;;;;;;;;;;5052524;28;20516;-75
2022/10/07 14:43:20;;;;;;;7.23;6.63;;;;;;;;;;5051780;28;20446;-76
2022/10/07 14:45:47;;;;;;;5.10;4.70;;;;;;;;;;5051882;28;20488;-76
2022/10/07 14:48:15;;;;;;;4.90;4.50;;;;;;;;;;5051883;28;20473;-76
2022/10/07 14:50:42;;;;;;;4.90;4.60;;;;;;;;;;5052003;28;20473;-77
2022/10/07 14:53:13;;;;;;;7.07;5.00;;;;;;;;;;5051508;28;20449;-75
2022/10/07 14:55:42;;;;;;;8.70;4.97;;;;;;;;;;5052314;28;20774;-76
2022/10/07 14:58:09;;;;;;;9.73;5.80;;;;;;;;;;5052488;28;20858;-76
2022/10/07 15:00:36;;;;;;;6.20;5.70;;;;;;;;;;5053178;28;20470;-75
2022/10/07 15:03:04;;;;;;;5.47;5.00;;;;;;;;;;5052074;28;20445;-75
2022/10/07 15:05:32;;;;;;;5.37;4.90;;;;;;;;;;5051841;28;20512;-76
2022/10/07 15:07:59;;;;;;;6.03;5.07;;;;;;;;;;5051846;28;20470;-76